sensor_id;sensor_type;location;lat;lon;timestamp;pressure;altitude;pressure_sealevel;temperature;humidity
37892;BME280;45797;47.466;9.486;2023-02-10T00:04:38;97551.91;;;2.03;62.57
37892;BME280;45797;47.466;9.486;2023-02-10T00:09:45;97565.75;;;1.95;62.47
37892;BME280;45797;47.466;9.486;2023-02-10T00:14:58;97576.13;;;1.89;62.25
37892;BME280;45797;47.466;9.486;2023-02-10T00:20:00;97576.13;;;1.89;62.71
37892;BME280;45797;47.466;9.486;2023-02-10T00:25:09;97584.78;;;1.84;62.52
37892;BME280;45797;47.466;9.486;2023-02-10T00:30:18;97581.38;;;1.82;62.71
37892;BME280;45797;47.466;9.486;2023-02-10T00:35:21;97590.84;;;1.83;62.53
37892;BME280;45797;47.466;9.486;2023-02-10T00:40:23;97598.59;;;1.81;62.46
37892;BME280;45797;47.466;9.486;2023-02-10T00:45:28;97611.56;;;1.74;62.53
37892;BME280;45797;47.466;9.486;2023-02-10T00:50:30;97602.97;;;1.71;63.04
37892;BME280;45797;47.466;9.486;2023-02-10T00:55:30;97596.94;;;1.69;62.70
37892;BME280;45797;47.466;9.486;2023-02-10T01:00:31;97606.47;;;1.66;62.81
37892;BME280;45797;47.466;9.486;2023-02-10T01:05:39;97608.22;;;1.59;62.88
37892;BME280;45797;47.466;9.486;2023-02-10T01:10:43;97617.69;;;1.57;63.27
37892;BME280;45797;47.466;9.486;2023-02-10T01:15:46;97619.44;;;1.55;63.22
37892;BME280;45797;47.466;9.486;2023-02-10T01:27:28;97620.34;;;1.47;63.32
37892;BME280;45797;47.466;9.486;2023-02-10T01:32:44;97624.69;;;1.41;63.08
37892;BME280;45797;47.466;9.486;2023-02-10T01:38:09;97627.31;;;1.32;63.10
37892;BME280;45797;47.466;9.486;2023-02-10T01:43:16;97635.06;;;1.32;63.84
37892;BME280;45797;47.466;9.486;2023-02-10T01:48:18;97632.50;;;1.34;63.48
37892;BME280;45797;47.466;9.486;2023-02-10T01:53:21;97632.50;;;1.34;63.03
37892;BME280;45797;47.466;9.486;2023-02-10T01:58:26;97637.59;;;1.40;63.14
37892;BME280;45797;47.466;9.486;2023-02-10T02:03:37;97638.50;;;1.31;63.47
37892;BME280;45797;47.466;9.486;2023-02-10T02:08:43;97647.13;;;1.30;63.54
37892;BME280;45797;47.466;9.486;2023-02-10T02:24:45;97651.47;;;1.21;63.46
37892;BME280;45797;47.466;9.486;2023-02-10T02:35:31;97647.16;;;1.21;63.98
37892;BME280;45797;47.466;9.486;2023-02-10T02:40:32;97650.66;;;1.16;63.80
37892;BME280;45797;47.466;9.486;2023-02-10T02:45:50;97664.41;;;1.13;63.62
37892;BME280;45797;47.466;9.486;2023-02-10T02:57:11;97664.44;;;1.07;63.62
37892;BME280;45797;47.466;9.486;2023-02-10T03:02:19;97663.53;;;1.12;63.62
37892;BME280;45797;47.466;9.486;2023-02-10T03:07:22;97652.34;;;1.13;63.96
37892;BME280;45797;47.466;9.486;2023-02-10T03:12:24;97636.88;;;1.13;63.78
37892;BME280;45797;47.466;9.486;2023-02-10T03:17:25;97627.44;;;1.12;63.60
37892;BME280;45797;47.466;9.486;2023-02-10T03:22:25;97621.41;;;1.10;64.02
37892;BME280;45797;47.466;9.486;2023-02-10T03:27:26;97620.56;;;1.10;63.97
37892;BME280;45797;47.466;9.486;2023-02-10T03:32:28;97633.50;;;1.07;64.10
37892;BME280;45797;47.466;9.486;2023-02-10T03:37:35;97633.50;;;1.07;63.92
37892;BME280;45797;47.466;9.486;2023-02-10T03:42:36;97636.03;;;1.11;63.81
37892;BME280;45797;47.466;9.486;2023-02-10T03:47:37;97629.13;;;1.13;64.35
37892;BME280;45797;47.466;9.486;2023-02-10T03:52:38;97645.47;;;1.12;64.27
37892;BME280;45797;47.466;9.486;2023-02-10T03:57:38;97646.38;;;1.08;63.95
37892;BME280;45797;47.466;9.486;2023-02-10T04:02:38;97661.88;;;1.07;64.35
37892;BME280;45797;47.466;9.486;2023-02-10T04:07:41;97669.59;;;1.04;64.25
37892;BME280;45797;47.466;9.486;2023-02-10T04:12:43;97670.47;;;1.04;64.46
37892;BME280;45797;47.466;9.486;2023-02-10T04:17:57;97675.69;;;0.95;63.84
37892;BME280;45797;47.466;9.486;2023-02-10T04:22:58;97679.97;;;0.98;64.07
37892;BME280;45797;47.466;9.486;2023-02-10T04:28:00;97689.41;;;0.94;64.49
37892;BME280;45797;47.466;9.486;2023-02-10T04:33:02;97678.25;;;0.91;65.03
37892;BME280;45797;47.466;9.486;2023-02-10T04:38:02;97677.41;;;0.87;64.99
37892;BME280;45797;47.466;9.486;2023-02-10T04:43:05;97689.44;;;0.88;64.41
37892;BME280;45797;47.466;9.486;2023-02-10T04:48:07;97681.72;;;0.83;64.69
37892;BME280;45797;47.466;9.486;2023-02-10T04:53:07;97670.53;;;0.81;64.49
37892;BME280;45797;47.466;9.486;2023-02-10T04:58:16;97667.97;;;0.80;64.13
37892;BME280;45797;47.466;9.486;2023-02-10T05:03:16;97663.69;;;0.79;64.71
37892;BME280;45797;47.466;9.486;2023-02-10T05:08:30;97668.84;;;0.73;64.77
37892;BME280;45797;47.466;9.486;2023-02-10T05:13:35;97673.13;;;0.74;64.13
37892;BME280;45797;47.466;9.486;2023-02-10T05:18:36;97685.19;;;0.70;64.82
37892;BME280;45797;47.466;9.486;2023-02-10T05:23:38;97694.66;;;0.70;64.90
37892;BME280;45797;47.466;9.486;2023-02-10T05:28:41;97697.22;;;0.71;64.76
37892;BME280;45797;47.466;9.486;2023-02-10T05:33:41;97676.59;;;0.70;64.69
37892;BME280;45797;47.466;9.486;2023-02-10T05:38:42;97671.44;;;0.65;64.54
37892;BME280;45797;47.466;9.486;2023-02-10T05:44:14;97682.63;;;0.63;64.89
37892;BME280;45797;47.466;9.486;2023-02-10T05:49:16;97688.63;;;0.66;64.80
37892;BME280;45797;47.466;9.486;2023-02-10T05:54:17;97694.66;;;0.64;64.42
37892;BME280;45797;47.466;9.486;2023-02-10T05:59:18;97699.81;;;0.62;65.25
37892;BME280;45797;47.466;9.486;2023-02-10T06:04:21;97704.09;;;0.62;64.82
37892;BME280;45797;47.466;9.486;2023-02-10T06:09:21;97703.25;;;0.56;65.08
37892;BME280;45797;47.466;9.486;2023-02-10T06:14:26;97711.84;;;0.59;64.65
37892;BME280;45797;47.466;9.486;2023-02-10T06:19:35;97725.59;;;0.54;64.70
37892;BME280;45797;47.466;9.486;2023-02-10T06:24:39;97737.63;;;0.55;64.76
37892;BME280;45797;47.466;9.486;2023-02-10T06:29:42;97740.22;;;0.57;65.09
37892;BME280;45797;47.466;9.486;2023-02-10T06:34:42;97756.53;;;0.57;65.00
37892;BME280;45797;47.466;9.486;2023-02-10T06:39:43;97759.97;;;0.60;65.17
37892;BME280;45797;47.466;9.486;2023-02-10T06:44:48;97762.53;;;0.60;65.19
37892;BME280;45797;47.466;9.486;2023-02-10T06:49:51;97762.53;;;0.61;64.84
37892;BME280;45797;47.466;9.486;2023-02-10T06:54:57;97759.94;;;0.66;65.06
37892;BME280;45797;47.466;9.486;2023-02-10T06:59:59;97768.53;;;0.72;64.98
37892;BME280;45797;47.466;9.486;2023-02-10T07:05:00;97766.81;;;0.79;64.43
37892;BME280;45797;47.466;9.486;2023-02-10T07:10:05;97763.38;;;0.86;64.36
37892;BME280;45797;47.466;9.486;2023-02-10T07:15:15;97771.94;;;0.91;64.65
37892;BME280;45797;47.466;9.486;2023-02-10T07:20:18;97772.78;;;1.01;64.55
37892;BME280;45797;47.466;9.486;2023-02-10T07:25:21;97773.63;;;1.09;64.48
37892;BME280;45797;47.466;9.486;2023-02-10T07:30:22;97769.31;;;1.16;63.99
37892;BME280;45797;47.466;9.486;2023-02-10T07:35:23;97771.84;;;1.28;64.45
37892;BME280;45797;47.466;9.486;2023-02-10T07:40:31;97766.69;;;1.34;64.01
37892;BME280;45797;47.466;9.486;2023-02-10T07:45:31;97774.41;;;1.43;63.85
37892;BME280;45797;47.466;9.486;2023-02-10T07:50:33;97775.22;;;1.54;63.60
37892;BME280;45797;47.466;9.486;2023-02-10T07:55:36;97769.97;;;1.66;63.41
37892;BME280;45797;47.466;9.486;2023-02-10T08:00:46;97776.81;;;1.77;63.91
37892;BME280;45797;47.466;9.486;2023-02-10T08:05:46;97783.63;;;1.93;63.43
37892;BME280;45797;47.466;9.486;2023-02-10T08:10:49;97767.16;;;2.11;63.06
37892;BME280;45797;47.466;9.486;2023-02-10T08:15:53;97771.34;;;2.25;62.81
37892;BME280;45797;47.466;9.486;2023-02-10T08:20:54;97786.78;;;2.38;62.85
37892;BME280;45797;47.466;9.486;2023-02-10T08:25:55;97800.44;;;2.55;62.33
37892;BME280;45797;47.466;9.486;2023-02-10T08:30:59;97806.34;;;2.71;62.37
37892;BME280;45797;47.466;9.486;2023-02-10T08:36:06;97812.28;;;2.80;61.97
37892;BME280;45797;47.466;9.486;2023-02-10T08:41:08;97823.38;;;2.96;61.83
37892;BME280;45797;47.466;9.486;2023-02-10T08:46:09;97813.81;;;3.06;61.91
37892;BME280;45797;47.466;9.486;2023-02-10T08:51:11;97811.91;;;3.23;61.97
37892;BME280;45797;47.466;9.486;2023-02-10T08:56:25;97817.00;;;3.32;61.86
37892;BME280;45797;47.466;9.486;2023-02-10T09:01:38;97809.16;;;3.38;61.29
37892;BME280;45797;47.466;9.486;2023-02-10T09:06:40;97801.25;;;3.52;61.72
37892;BME280;45797;47.466;9.486;2023-02-10T09:11:44;97799.34;;;3.65;61.63
37892;BME280;45797;47.466;9.486;2023-02-10T09:16:44;97790.59;;;3.75;61.45
37892;BME280;45797;47.466;9.486;2023-02-10T09:21:56;97804.25;;;3.86;61.92
37892;BME280;45797;47.466;9.486;2023-02-10T09:26:58;97806.72;;;3.97;61.68
37892;BME280;45797;47.466;9.486;2023-02-10T09:32:03;97798.78;;;4.09;61.19
37892;BME280;45797;47.466;9.486;2023-02-10T09:37:04;97810.81;;;4.13;61.70
37892;BME280;45797;47.466;9.486;2023-02-10T09:42:42;97807.19;;;4.25;61.44
37892;BME280;45797;47.466;9.486;2023-02-10T09:47:56;97804.44;;;4.37;60.96
37892;BME280;45797;47.466;9.486;2023-02-10T09:53:16;97811.47;;;4.29;61.26
37892;BME280;45797;47.466;9.486;2023-02-10T09:58:33;97820.06;;;4.33;61.33
37892;BME280;45797;47.466;9.486;2023-02-10T10:04:08;97812.22;;;4.37;61.03
37892;BME280;45797;47.466;9.486;2023-02-10T10:09:35;97805.06;;;4.51;60.80
37892;BME280;45797;47.466;9.486;2023-02-10T10:14:40;97807.63;;;4.54;61.04
37892;BME280;45797;47.466;9.486;2023-02-10T10:20:02;97800.53;;;4.64;60.96
37892;BME280;45797;47.466;9.486;2023-02-10T10:30:18;97794.31;;;4.76;60.84
37892;BME280;45797;47.466;9.486;2023-02-10T10:35:31;97796.78;;;4.82;60.74
37892;BME280;45797;47.466;9.486;2023-02-10T10:40:34;97799.06;;;5.03;60.42
37892;BME280;45797;47.466;9.486;2023-02-10T10:45:44;97798.69;;;5.23;60.30
37892;BME280;45797;47.466;9.486;2023-02-10T10:50:46;97790.56;;;5.41;60.16
37892;BME280;45797;47.466;9.486;2023-02-10T10:55:50;97788.66;;;5.48;60.08
37892;BME280;45797;47.466;9.486;2023-02-10T11:00:55;97781.69;;;5.52;59.91
37892;BME280;45797;47.466;9.486;2023-02-10T11:06:16;97776.81;;;5.35;59.99
37892;BME280;45797;47.466;9.486;2023-02-10T11:11:32;97762.13;;;5.34;60.10
37892;BME280;45797;47.466;9.486;2023-02-10T11:16:41;97769.81;;;5.38;60.56
37892;BME280;45797;47.466;9.486;2023-02-10T11:21:43;97766.50;;;5.32;60.87
37892;BME280;45797;47.466;9.486;2023-02-10T11:27:11;97754.06;;;5.46;60.50
37892;BME280;45797;47.466;9.486;2023-02-10T11:32:29;97744.91;;;5.71;60.25
37892;BME280;45797;47.466;9.486;2023-02-10T11:37:36;97735.53;;;6.05;59.90
37892;BME280;45797;47.466;9.486;2023-02-10T11:42:45;97728.31;;;6.17;59.67
37892;BME280;45797;47.466;9.486;2023-02-10T11:48:03;97727.22;;;6.27;59.71
37892;BME280;45797;47.466;9.486;2023-02-10T11:53:25;97724.78;;;6.20;59.56
37892;BME280;45797;47.466;9.486;2023-02-10T12:04:18;97727.34;;;6.21;59.79
37892;BME280;45797;47.466;9.486;2023-02-10T12:09:46;97713.78;;;6.44;59.16
37892;BME280;45797;47.466;9.486;2023-02-10T12:15:08;97709.78;;;6.67;59.08
37892;BME280;45797;47.466;9.486;2023-02-10T12:25:58;97697.19;;;6.84;59.18
37892;BME280;45797;47.466;9.486;2023-02-10T12:31:31;97695.03;;;6.98;59.14
37892;BME280;45797;47.466;9.486;2023-02-10T12:37:01;97683.28;;;7.16;58.87
37892;BME280;45797;47.466;9.486;2023-02-10T12:42:32;97682.44;;;7.45;58.22
37892;BME280;45797;47.466;9.486;2023-02-10T12:53:23;97679.78;;;7.47;58.50
37892;BME280;45797;47.466;9.486;2023-02-10T12:58:47;97683.28;;;7.75;57.49
37892;BME280;45797;47.466;9.486;2023-02-10T13:04:02;97681.78;;;7.68;57.88
37892;BME280;45797;47.466;9.486;2023-02-10T13:09:32;97684.09;;;7.49;58.72
37892;BME280;45797;47.466;9.486;2023-02-10T13:14:41;97682.72;;;7.65;58.43
37892;BME280;45797;47.466;9.486;2023-02-10T13:19:53;97684.25;;;7.72;58.03
37892;BME280;45797;47.466;9.486;2023-02-10T13:25:14;97679.94;;;7.71;57.93
37892;BME280;45797;47.466;9.486;2023-02-10T13:30:42;97680.50;;;7.81;57.85
37892;BME280;45797;47.466;9.486;2023-02-10T13:35:45;97690.50;;;7.67;58.15
37892;BME280;45797;47.466;9.486;2023-02-10T13:40:49;97683.50;;;7.69;58.21
37892;BME280;45797;47.466;9.486;2023-02-10T13:45:52;97684.94;;;7.79;57.68
37892;BME280;45797;47.466;9.486;2023-02-10T13:51:03;97676.19;;;7.80;57.23
37892;BME280;45797;47.466;9.486;2023-02-10T14:01:39;97681.03;;;7.92;57.04
37892;BME280;45797;47.466;9.486;2023-02-10T14:06:41;97687.59;;;8.06;56.59
37892;BME280;45797;47.466;9.486;2023-02-10T14:11:50;97682.13;;;8.13;56.26
37892;BME280;45797;47.466;9.486;2023-02-10T14:23:39;97681.47;;;8.33;56.02
37892;BME280;45797;47.466;9.486;2023-02-10T14:28:47;97684.13;;;8.31;55.84
37892;BME280;45797;47.466;9.486;2023-02-10T14:34:04;97674.63;;;8.57;55.42
37892;BME280;45797;47.466;9.486;2023-02-10T14:39:14;97670.84;;;8.92;55.08
37892;BME280;45797;47.466;9.486;2023-02-10T14:44:47;97667.69;;;9.31;54.25
37892;BME280;45797;47.466;9.486;2023-02-10T14:49:51;97667.00;;;9.72;53.60
37892;BME280;45797;47.466;9.486;2023-02-10T14:54:52;97671.22;;;9.98;53.10
37892;BME280;45797;47.466;9.486;2023-02-10T14:59:59;97666.72;;;10.02;53.04
37892;BME280;45797;47.466;9.486;2023-02-10T15:05:02;97665.69;;;10.06;53.19
37892;BME280;45797;47.466;9.486;2023-02-10T15:10:19;97675.00;;;10.13;53.23
37892;BME280;45797;47.466;9.486;2023-02-10T15:15:37;97683.53;;;10.18;52.91
37892;BME280;45797;47.466;9.486;2023-02-10T15:20:39;97680.22;;;10.13;53.35
37892;BME280;45797;47.466;9.486;2023-02-10T15:25:41;97691.25;;;10.21;52.86
37892;BME280;45797;47.466;9.486;2023-02-10T15:36:20;97684.88;;;10.07;53.04
37892;BME280;45797;47.466;9.486;2023-02-10T15:41:55;97702.00;;;9.92;53.46
37892;BME280;45797;47.466;9.486;2023-02-10T15:52:40;97693.84;;;9.78;53.03
37892;BME280;45797;47.466;9.486;2023-02-10T15:57:42;97685.66;;;9.63;53.26
37892;BME280;45797;47.466;9.486;2023-02-10T16:02:47;97682.94;;;9.43;53.72
37892;BME280;45797;47.466;9.486;2023-02-10T16:07:49;97689.03;;;9.19;53.58
37892;BME280;45797;47.466;9.486;2023-02-10T16:12:52;97690.34;;;8.82;54.35
37892;BME280;45797;47.466;9.486;2023-02-10T16:17:56;97694.75;;;8.27;55.18
37892;BME280;45797;47.466;9.486;2023-02-10T16:23:00;97701.59;;;7.73;56.16
37892;BME280;45797;47.466;9.486;2023-02-10T16:28:00;97714.38;;;7.22;56.66
37892;BME280;45797;47.466;9.486;2023-02-10T16:33:12;97714.66;;;6.79;57.04
37892;BME280;45797;47.466;9.486;2023-02-10T16:38:14;97712.94;;;6.44;57.34
37892;BME280;45797;47.466;9.486;2023-02-10T16:43:21;97719.84;;;6.09;57.30
37892;BME280;45797;47.466;9.486;2023-02-10T16:48:25;97717.81;;;5.82;57.99
37892;BME280;45797;47.466;9.486;2023-02-10T16:53:25;97729.63;;;5.56;58.49
37892;BME280;45797;47.466;9.486;2023-02-10T16:58:32;97734.47;;;5.30;58.41
37892;BME280;45797;47.466;9.486;2023-02-10T17:03:32;97738.41;;;5.06;58.38
37892;BME280;45797;47.466;9.486;2023-02-10T17:08:33;97740.50;;;4.85;59.26
37892;BME280;45797;47.466;9.486;2023-02-10T17:13:34;97736.53;;;4.66;59.40
37892;BME280;45797;47.466;9.486;2023-02-10T17:18:44;97731.63;;;4.48;59.17
37892;BME280;45797;47.466;9.486;2023-02-10T17:23:45;97738.72;;;4.38;58.93
37892;BME280;45797;47.466;9.486;2023-02-10T17:28:46;97748.34;;;4.30;58.95
37892;BME280;45797;47.466;9.486;2023-02-10T17:33:54;97745.91;;;4.21;58.98
37892;BME280;45797;47.466;9.486;2023-02-10T17:38:57;97750.28;;;4.16;59.17
37892;BME280;45797;47.466;9.486;2023-02-10T17:44:02;97744.38;;;4.08;58.75
37892;BME280;45797;47.466;9.486;2023-02-10T17:49:03;97754.84;;;4.00;59.09
37892;BME280;45797;47.466;9.486;2023-02-10T17:54:05;97755.78;;;3.94;59.38
37892;BME280;45797;47.466;9.486;2023-02-10T17:59:07;97777.47;;;3.89;59.15
37892;BME280;45797;47.466;9.486;2023-02-10T18:04:11;97774.03;;;3.87;59.17
37892;BME280;45797;47.466;9.486;2023-02-10T18:09:14;97775.81;;;3.82;59.10
37892;BME280;45797;47.466;9.486;2023-02-10T18:14:15;97780.19;;;3.78;59.37
37892;BME280;45797;47.466;9.486;2023-02-10T18:19:15;97781.09;;;3.74;59.14
37892;BME280;45797;47.466;9.486;2023-02-10T18:24:16;97773.38;;;3.71;59.28
37892;BME280;45797;47.466;9.486;2023-02-10T18:29:16;97766.50;;;3.70;59.17
37892;BME280;45797;47.466;9.486;2023-02-10T18:34:16;97763.91;;;3.67;59.32
37892;BME280;45797;47.466;9.486;2023-02-10T18:39:17;97767.44;;;3.63;60.05
37892;BME280;45797;47.466;9.486;2023-02-10T18:44:18;97770.94;;;3.60;59.84
37892;BME280;45797;47.466;9.486;2023-02-10T18:49:18;97765.81;;;3.54;59.67
37892;BME280;45797;47.466;9.486;2023-02-10T18:54:20;97763.22;;;3.54;59.45
37892;BME280;45797;47.466;9.486;2023-02-10T18:59:21;97760.63;;;3.54;59.46
37892;BME280;45797;47.466;9.486;2023-02-10T19:04:31;97754.63;;;3.51;59.40
37892;BME280;45797;47.466;9.486;2023-02-10T19:09:32;97767.59;;;3.51;59.79
37892;BME280;45797;47.466;9.486;2023-02-10T19:14:34;97757.22;;;3.49;59.20
37892;BME280;45797;47.466;9.486;2023-02-10T19:19:35;97759.00;;;3.46;59.32
37892;BME280;45797;47.466;9.486;2023-02-10T19:24:37;97764.22;;;3.42;59.64
37892;BME280;45797;47.466;9.486;2023-02-10T19:29:47;97760.81;;;3.39;60.01
37892;BME280;45797;47.466;9.486;2023-02-10T19:34:47;97766.84;;;3.39;59.53
37892;BME280;45797;47.466;9.486;2023-02-10T19:39:49;97760.81;;;3.39;60.11
37892;BME280;45797;47.466;9.486;2023-02-10T19:44:51;97760.00;;;3.34;59.82
37892;BME280;45797;47.466;9.486;2023-02-10T19:49:51;97772.16;;;3.27;59.72
37892;BME280;45797;47.466;9.486;2023-02-10T19:54:56;97774.81;;;3.23;60.23
37892;BME280;45797;47.466;9.486;2023-02-10T19:59:57;97775.69;;;3.20;59.96
37892;BME280;45797;47.466;9.486;2023-02-10T20:05:02;97773.13;;;3.19;60.15
37892;BME280;45797;47.466;9.486;2023-02-10T20:10:03;97781.78;;;3.16;60.33
37892;BME280;45797;47.466;9.486;2023-02-10T20:15:06;97783.53;;;3.11;60.36
37892;BME280;45797;47.466;9.486;2023-02-10T20:20:06;97781.91;;;3.04;60.34
37892;BME280;45797;47.466;9.486;2023-02-10T20:25:07;97788.84;;;2.99;60.59
37892;BME280;45797;47.466;9.486;2023-02-10T20:30:07;97791.47;;;2.96;60.76
37892;BME280;45797;47.466;9.486;2023-02-10T20:35:08;97791.47;;;2.93;60.04
37892;BME280;45797;47.466;9.486;2023-02-10T20:40:17;97792.38;;;2.90;60.48
37892;BME280;45797;47.466;9.486;2023-02-10T20:45:36;97800.16;;;2.89;60.11
37892;BME280;45797;47.466;9.486;2023-02-10T20:50:37;97798.41;;;2.91;60.22
37892;BME280;45797;47.466;9.486;2023-02-10T20:55:39;97782.09;;;2.85;60.17
37892;BME280;45797;47.466;9.486;2023-02-10T21:00:39;97789.00;;;2.82;60.56
37892;BME280;45797;47.466;9.486;2023-02-10T21:05:40;97787.31;;;2.78;60.63
37892;BME280;45797;47.466;9.486;2023-02-10T21:10:41;97792.53;;;2.75;60.37
37892;BME280;45797;47.466;9.486;2023-02-10T21:15:50;97791.69;;;2.71;60.70
37892;BME280;45797;47.466;9.486;2023-02-10T21:21:03;97784.84;;;2.64;60.49
37892;BME280;45797;47.466;9.486;2023-02-10T21:26:06;97777.09;;;2.66;61.02
37892;BME280;45797;47.466;9.486;2023-02-10T21:31:19;97782.28;;;2.61;60.79
37892;BME280;45797;47.466;9.486;2023-02-10T21:36:24;97777.94;;;2.66;60.56
37892;BME280;45797;47.466;9.486;2023-02-10T21:41:27;97777.06;;;2.64;61.16
37892;BME280;45797;47.466;9.486;2023-02-10T21:47:10;97777.97;;;2.62;61.07
37892;BME280;45797;47.466;9.486;2023-02-10T21:52:13;97779.66;;;2.64;60.61
37892;BME280;45797;47.466;9.486;2023-02-10T21:57:23;97792.63;;;2.61;60.62
37892;BME280;45797;47.466;9.486;2023-02-10T22:02:25;97771.06;;;2.62;61.24
37892;BME280;45797;47.466;9.486;2023-02-10T22:07:25;97783.19;;;2.58;60.90
37892;BME280;45797;47.466;9.486;2023-02-10T22:12:35;97781.44;;;2.59;60.57
37892;BME280;45797;47.466;9.486;2023-02-10T22:17:37;97774.53;;;2.61;60.89
37892;BME280;45797;47.466;9.486;2023-02-10T22:22:39;97759.91;;;2.57;60.67
37892;BME280;45797;47.466;9.486;2023-02-10T22:27:42;97759.03;;;2.58;61.04
37892;BME280;45797;47.466;9.486;2023-02-10T22:32:43;97763.38;;;2.56;61.31
37892;BME280;45797;47.466;9.486;2023-02-10T22:37:53;97770.31;;;2.49;60.90
37892;BME280;45797;47.466;9.486;2023-02-10T22:42:53;97765.16;;;2.48;61.45
37892;BME280;45797;47.466;9.486;2023-02-10T22:47:55;97774.63;;;2.46;61.09
37892;BME280;45797;47.466;9.486;2023-02-10T22:52:57;97767.72;;;2.49;61.52
37892;BME280;45797;47.466;9.486;2023-02-10T22:58:10;97754.81;;;2.45;60.86
37892;BME280;45797;47.466;9.486;2023-02-10T23:03:11;97747.94;;;2.45;61.34
37892;BME280;45797;47.466;9.486;2023-02-10T23:08:14;97741.94;;;2.42;61.64
37892;BME280;45797;47.466;9.486;2023-02-10T23:13:14;97744.56;;;2.34;61.67
37892;BME280;45797;47.466;9.486;2023-02-10T23:18:15;97747.19;;;2.33;61.69
37892;BME280;45797;47.466;9.486;2023-02-10T23:23:16;97748.97;;;2.27;61.55
37892;BME280;45797;47.466;9.486;2023-02-10T23:28:19;97755.84;;;2.25;61.80
37892;BME280;45797;47.466;9.486;2023-02-10T23:33:24;97751.56;;;2.23;61.91
37892;BME280;45797;47.466;9.486;2023-02-10T23:38:27;97749.03;;;2.18;62.10
37892;BME280;45797;47.466;9.486;2023-02-10T23:43:28;97745.59;;;2.13;62.11
37892;BME280;45797;47.466;9.486;2023-02-10T23:48:29;97743.03;;;2.12;61.74
37892;BME280;45797;47.466;9.486;2023-02-10T23:53:30;97745.59;;;2.13;61.96
37892;BME280;45797;47.466;9.486;2023-02-10T23:58:35;97740.47;;;2.10;62.11
